Time;durP1;ratioP1;P1;durP2;ratioP2;P2;SDS_P1;SDS_P2;PMS_P1;PMS_P2;Temp;Humidity;BMP_temperature;BMP_pressure;BME280_temperature;BME280_humidity;BME280_pressure;Samples;Min_cycle;Max_cycle;Signal;HPM_P1;HPM_P2
2023/06/03 00:01:32;;;;;;;9.52;7.88;;;;;;;;;;9499530;30;20057;-75
2023/06/03 00:06:25;;;;;;;7.75;6.95;;;;;;;;;;9497001;29;20059;-75
2023/06/03 00:11:19;;;;;;;7.07;5.93;;;;;;;;;;9498874;30;20056;-75
2023/06/03 00:16:12;;;;;;;10.27;6.93;;;;;;;;;;9503289;30;20052;-75
2023/06/03 00:21:06;;;;;;;8.63;5.90;;;;;;;;;;9491874;30;20059;-72
2023/06/03 00:25:59;;;;;;;6.30;5.70;;;;;;;;;;9498277;30;20159;-72
2023/06/03 00:30:52;;;;;;;5.22;4.50;;;;;;;;;;9495461;30;20080;-73
2023/06/03 00:35:45;;;;;;;7.40;5.28;;;;;;;;;;9505654;30;20066;-73
2023/06/03 00:40:39;;;;;;;8.73;7.53;;;;;;;;;;9499578;30;20141;-73
2023/06/03 00:45:32;;;;;;;8.30;7.50;;;;;;;;;;9500098;30;20040;-74
2023/06/03 00:50:25;;;;;;;8.20;7.38;;;;;;;;;;9499478;30;20106;-73
2023/06/03 00:55:19;;;;;;;14.18;9.02;;;;;;;;;;9505182;30;20517;-74
2023/06/03 01:00:13;;;;;;;10.52;8.52;;;;;;;;;;9505078;30;20060;-73
2023/06/03 01:05:07;;;;;;;11.85;8.93;;;;;;;;;;9472094;30;20060;-74
2023/06/03 01:10:24;;;;;;;9.48;8.32;;;;;;;;;;9504454;30;20059;-74
2023/06/03 01:15:20;;;;;;;9.90;7.57;;;;;;;;;;9506701;30;20071;-73
2023/06/03 01:20:14;;;;;;;13.77;7.38;;;;;;;;;;9486006;30;20065;-74
2023/06/03 01:25:09;;;;;;;9.82;6.50;;;;;;;;;;9496117;30;20095;-74
2023/06/03 01:30:03;;;;;;;14.85;7.03;;;;;;;;;;9491695;30;20500;-74
2023/06/03 01:34:56;;;;;;;9.35;6.65;;;;;;;;;;9509416;30;20072;-74
2023/06/03 01:39:50;;;;;;;8.68;7.18;;;;;;;;;;9480151;30;20146;-75
2023/06/03 01:44:45;;;;;;;9.48;8.50;;;;;;;;;;9506308;30;20147;-74
2023/06/03 01:49:38;;;;;;;9.88;8.50;;;;;;;;;;9483839;30;20090;-74
2023/06/03 01:54:32;;;;;;;10.95;9.45;;;;;;;;;;9483329;30;20060;-73
2023/06/03 01:59:26;;;;;;;9.82;7.68;;;;;;;;;;9517036;30;20105;-73
2023/06/03 02:04:18;;;;;;;11.82;8.40;;;;;;;;;;9490332;30;20051;-74
2023/06/03 02:09:11;;;;;;;9.88;9.02;;;;;;;;;;9487176;30;20087;-75
2023/06/03 02:14:05;;;;;;;10.07;9.07;;;;;;;;;;9482940;30;20076;-77
2023/06/03 02:18:58;;;;;;;9.73;8.40;;;;;;;;;;9486559;30;20061;-77
2023/06/03 02:23:51;;;;;;;10.40;9.30;;;;;;;;;;9500336;30;20083;-74
2023/06/03 02:28:45;;;;;;;9.35;8.45;;;;;;;;;;9514378;30;20413;-74
2023/06/03 02:33:38;;;;;;;10.82;8.45;;;;;;;;;;9514220;30;20143;-75
2023/06/03 02:38:32;;;;;;;8.45;7.65;;;;;;;;;;9515711;30;20134;-74
2023/06/03 02:43:25;;;;;;;9.15;8.25;;;;;;;;;;9512692;30;20102;-74
2023/06/03 02:48:18;;;;;;;10.20;8.52;;;;;;;;;;9515765;30;20060;-75
2023/06/03 02:53:13;;;;;;;9.43;8.52;;;;;;;;;;9502233;30;20056;-75
2023/06/03 02:58:06;;;;;;;14.13;10.73;;;;;;;;;;9492022;30;20071;-76
2023/06/03 03:02:58;;;;;;;9.73;8.82;;;;;;;;;;9497557;30;20056;-76
2023/06/03 03:07:54;;;;;;;9.55;8.38;;;;;;;;;;9500789;30;20056;-76
2023/06/03 03:12:50;;;;;;;11.38;7.47;;;;;;;;;;9499964;30;20148;-76
2023/06/03 03:17:47;;;;;;;12.35;7.70;;;;;;;;;;9486490;30;20513;-76
2023/06/03 03:22:41;;;;;;;14.30;8.45;;;;;;;;;;9514750;30;20060;-75
2023/06/03 03:27:35;;;;;;;8.65;7.45;;;;;;;;;;9488789;30;20065;-75
2023/06/03 03:32:29;;;;;;;9.10;8.20;;;;;;;;;;9503665;30;20139;-76
2023/06/03 03:37:22;;;;;;;11.70;9.00;;;;;;;;;;9494086;30;20506;-71
2023/06/03 03:42:16;;;;;;;10.23;8.45;;;;;;;;;;9472128;30;20096;-73
2023/06/03 03:47:09;;;;;;;10.98;9.07;;;;;;;;;;9499600;30;20103;-74
2023/06/03 03:52:06;;;;;;;9.00;8.15;;;;;;;;;;9506566;30;20048;-74
2023/06/03 03:57:10;;;;;;;13.15;9.00;;;;;;;;;;9485757;30;20080;-74
2023/06/03 04:02:04;;;;;;;10.43;7.95;;;;;;;;;;9480635;30;20098;-74
2023/06/03 04:06:58;;;;;;;9.93;7.78;;;;;;;;;;9495081;30;20069;-75
2023/06/03 04:11:51;;;;;;;10.27;7.93;;;;;;;;;;9493963;30;20152;-74
2023/06/03 04:16:56;;;;;;;12.18;8.10;;;;;;;;;;9495128;30;20060;-76
2023/06/03 04:21:55;;;;;;;9.98;7.82;;;;;;;;;;9505087;30;20068;-75
2023/06/03 04:26:49;;;;;;;19.30;10.25;;;;;;;;;;9504802;30;20492;-75
2023/06/03 04:31:42;;;;;;;10.52;8.30;;;;;;;;;;9482289;30;20053;-77
2023/06/03 04:36:36;;;;;;;11.13;8.52;;;;;;;;;;9497587;30;20135;-75
2023/06/03 04:41:32;;;;;;;13.52;8.68;;;;;;;;;;9488610;30;20394;-76
2023/06/03 04:46:29;;;;;;;11.02;7.50;;;;;;;;;;9498984;30;20076;-76
2023/06/03 04:51:27;;;;;;;10.25;8.50;;;;;;;;;;9481988;30;20491;-76
2023/06/03 04:56:21;;;;;;;9.32;8.43;;;;;;;;;;9492393;30;20065;-73
2023/06/03 05:01:17;;;;;;;10.82;8.25;;;;;;;;;;9487784;30;20123;-74
2023/06/03 05:06:11;;;;;;;9.55;8.10;;;;;;;;;;9498761;30;20061;-75
2023/06/03 05:11:07;;;;;;;8.32;7.53;;;;;;;;;;9500885;30;20509;-75
2023/06/03 05:16:01;;;;;;;13.98;8.15;;;;;;;;;;9492185;30;20079;-75
2023/06/03 05:20:55;;;;;;;10.15;7.80;;;;;;;;;;9472078;30;20076;-76
2023/06/03 05:25:49;;;;;;;10.60;7.68;;;;;;;;;;9469203;30;20057;-75
2023/06/03 05:30:41;;;;;;;13.18;8.68;;;;;;;;;;9467578;30;20084;-74
2023/06/03 05:35:35;;;;;;;11.15;8.40;;;;;;;;;;9494286;30;20173;-74
2023/06/03 05:40:28;;;;;;;8.90;8.00;;;;;;;;;;9504080;30;20060;-76
2023/06/03 05:45:22;;;;;;;10.77;9.02;;;;;;;;;;9503886;30;20075;-76
2023/06/03 05:50:16;;;;;;;11.43;9.25;;;;;;;;;;9501791;30;20044;-75
2023/06/03 05:55:09;;;;;;;9.13;8.23;;;;;;;;;;9488691;30;20061;-78
2023/06/03 06:00:04;;;;;;;9.45;8.35;;;;;;;;;;9479593;30;20489;-75
2023/06/03 06:05:06;;;;;;;11.13;7.00;;;;;;;;;;9491920;30;20063;-76
2023/06/03 06:10:00;;;;;;;10.13;6.32;;;;;;;;;;9478927;30;20056;-74
2023/06/03 06:14:54;;;;;;;12.18;7.53;;;;;;;;;;9502129;30;20056;-79
2023/06/03 06:19:49;;;;;;;11.52;8.70;;;;;;;;;;9489689;30;20064;-72
2023/06/03 06:24:43;;;;;;;10.55;7.45;;;;;;;;;;9516861;29;20083;-69
2023/06/03 06:29:36;;;;;;;15.10;7.55;;;;;;;;;;9501118;30;20498;-71
2023/06/03 06:34:31;;;;;;;11.88;6.88;;;;;;;;;;9498846;30;20056;-70
2023/06/03 06:39:33;;;;;;;6.63;6.03;;;;;;;;;;9501951;30;20095;-73
2023/06/03 06:44:59;;;;;;;9.38;7.18;;;;;;;;;;9518626;30;20147;-72
2023/06/03 06:49:57;;;;;;;11.57;6.63;;;;;;;;;;9492835;30;20117;-71
2023/06/03 06:54:54;;;;;;;8.05;7.25;;;;;;;;;;9500417;30;20056;-70
2023/06/03 06:59:53;;;;;;;8.00;7.30;;;;;;;;;;9489720;30;20052;-70
2023/06/03 07:04:49;;;;;;;9.13;7.32;;;;;;;;;;9486469;30;20048;-69
2023/06/03 07:09:42;;;;;;;7.30;6.60;;;;;;;;;;9491349;30;20052;-70
2023/06/03 07:14:36;;;;;;;8.32;6.68;;;;;;;;;;9489236;30;20064;-70
2023/06/03 07:19:37;;;;;;;5.35;4.85;;;;;;;;;;9514748;30;20425;-69
2023/06/03 07:24:36;;;;;;;5.18;4.55;;;;;;;;;;9490732;30;20117;-76
2023/06/03 07:29:37;;;;;;;6.35;4.07;;;;;;;;;;9497104;30;20054;-70
2023/06/03 07:34:34;;;;;;;6.57;4.22;;;;;;;;;;9503451;30;20060;-70
2023/06/03 07:39:28;;;;;;;5.05;4.05;;;;;;;;;;9486370;30;20060;-66
2023/06/03 07:44:25;;;;;;;5.93;4.72;;;;;;;;;;9502131;30;20062;-70
2023/06/03 07:49:19;;;;;;;6.97;4.30;;;;;;;;;;9491994;30;20060;-66
2023/06/03 07:54:14;;;;;;;4.78;4.03;;;;;;;;;;9491893;30;20056;-66
2023/06/03 07:59:11;;;;;;;5.13;4.63;;;;;;;;;;9496462;30;20063;-66
2023/06/03 08:04:53;;;;;;;4.93;4.43;;;;;;;;;;9502614;30;20071;-66
2023/06/03 08:09:47;;;;;;;4.70;4.20;;;;;;;;;;9483727;30;20590;-66
2023/06/03 08:14:41;;;;;;;7.93;4.50;;;;;;;;;;9491580;30;20215;-68
2023/06/03 08:19:34;;;;;;;5.63;5.00;;;;;;;;;;9488339;30;20109;-71
2023/06/03 08:24:27;;;;;;;6.85;5.38;;;;;;;;;;9495474;29;20070;-75
2023/06/03 08:29:20;;;;;;;5.80;4.90;;;;;;;;;;9497049;30;20067;-68
2023/06/03 08:34:13;;;;;;;8.30;5.00;;;;;;;;;;9490670;30;20064;-69
2023/06/03 08:39:07;;;;;;;5.32;4.55;;;;;;;;;;9485189;30;20073;-69
2023/06/03 08:44:02;;;;;;;14.18;5.72;;;;;;;;;;9490922;30;20390;-64
2023/06/03 08:49:03;;;;;;;14.93;5.82;;;;;;;;;;9492472;30;20080;-68
2023/06/03 08:53:56;;;;;;;7.65;5.35;;;;;;;;;;9496636;30;20083;-67
2023/06/03 08:59:01;;;;;;;8.10;6.07;;;;;;;;;;9493771;30;20056;-65
2023/06/03 09:03:55;;;;;;;6.15;5.55;;;;;;;;;;9493724;30;20447;-68
2023/06/03 09:08:52;;;;;;;6.20;5.45;;;;;;;;;;9490634;30;20437;-67
2023/06/03 09:13:46;;;;;;;6.80;6.10;;;;;;;;;;9483682;30;20563;-67
2023/06/03 09:18:40;;;;;;;7.90;7.10;;;;;;;;;;9485162;30;20114;-67
2023/06/03 09:23:34;;;;;;;6.35;5.75;;;;;;;;;;9503015;30;20471;-68
2023/06/03 09:28:29;;;;;;;7.78;6.97;;;;;;;;;;9491747;30;20064;-67
2023/06/03 09:33:23;;;;;;;5.60;5.10;;;;;;;;;;9495517;30;20067;-68
2023/06/03 09:38:17;;;;;;;7.40;5.60;;;;;;;;;;9487798;30;21818;-68
2023/06/03 09:43:11;;;;;;;6.78;5.80;;;;;;;;;;9483251;30;20110;-69
2023/06/03 09:48:05;;;;;;;6.65;5.95;;;;;;;;;;9495097;30;20466;-69
2023/06/03 09:53:00;;;;;;;6.78;6.10;;;;;;;;;;9488430;30;20057;-69
2023/06/03 09:58:21;;;;;;;7.97;6.32;;;;;;;;;;9481685;30;20470;-69
2023/06/03 10:03:15;;;;;;;6.88;5.60;;;;;;;;;;9495653;30;20167;-67
2023/06/03 10:08:08;;;;;;;6.30;5.20;;;;;;;;;;9492429;29;20060;-68
2023/06/03 10:13:18;;;;;;;7.72;5.57;;;;;;;;;;9491859;30;20052;-71
2023/06/03 10:18:13;;;;;;;6.60;4.70;;;;;;;;;;9498409;30;20471;-68
2023/06/03 10:23:10;;;;;;;7.72;5.93;;;;;;;;;;9498654;30;20052;-68
2023/06/03 10:28:03;;;;;;;5.65;4.97;;;;;;;;;;9500671;30;20090;-68
2023/06/03 10:32:58;;;;;;;6.47;5.68;;;;;;;;;;9494911;30;20080;-68
2023/06/03 10:37:52;;;;;;;7.00;5.05;;;;;;;;;;9503371;30;20045;-68
2023/06/03 10:42:46;;;;;;;6.22;5.40;;;;;;;;;;9496761;30;20064;-68
2023/06/03 10:47:41;;;;;;;7.28;4.82;;;;;;;;;;9483364;30;20052;-68
2023/06/03 10:53:29;;;;;;;5.73;4.23;;;;;;;;;;9498365;30;20420;-69
2023/06/03 10:58:25;;;;;;;13.32;4.43;;;;;;;;;;9465970;30;20104;-68
2023/06/03 11:03:18;;;;;;;8.93;4.43;;;;;;;;;;9510864;30;20110;-68
2023/06/03 11:08:12;;;;;;;5.70;4.72;;;;;;;;;;9499699;30;20072;-68
2023/06/03 11:13:06;;;;;;;5.70;4.35;;;;;;;;;;9503939;30;20416;-67
2023/06/03 11:18:29;;;;;;;6.05;4.93;;;;;;;;;;9501629;30;20056;-68
2023/06/03 11:23:41;;;;;;;7.05;4.97;;;;;;;;;;9495623;30;20536;-68
2023/06/03 11:28:35;;;;;;;6.68;4.32;;;;;;;;;;9497928;30;20056;-72
2023/06/03 11:33:30;;;;;;;4.13;3.50;;;;;;;;;;9507420;30;20072;-70
2023/06/03 11:39:00;;;;;;;5.00;3.42;;;;;;;;;;9505290;30;20074;-70
2023/06/03 11:44:20;;;;;;;6.63;3.47;;;;;;;;;;9506928;30;20517;-69
2023/06/03 11:49:24;;;;;;;4.75;3.97;;;;;;;;;;9503066;30;20063;-68
2023/06/03 11:54:17;;;;;;;6.57;4.18;;;;;;;;;;9495697;30;20528;-68
2023/06/03 11:59:13;;;;;;;4.57;4.03;;;;;;;;;;9495163;30;20056;-69
2023/06/03 12:04:08;;;;;;;5.05;4.00;;;;;;;;;;9486633;30;20075;-69
2023/06/03 12:09:01;;;;;;;6.28;4.28;;;;;;;;;;9497043;30;20100;-70
2023/06/03 12:13:55;;;;;;;5.30;4.32;;;;;;;;;;9496358;30;20098;-72
2023/06/03 12:18:49;;;;;;;6.13;4.03;;;;;;;;;;9487887;30;20421;-71
2023/06/03 12:23:45;;;;;;;5.30;4.60;;;;;;;;;;9498978;30;20135;-72
2023/06/03 12:28:38;;;;;;;8.50;4.88;;;;;;;;;;9493242;30;20409;-71
2023/06/03 12:33:41;;;;;;;4.15;3.72;;;;;;;;;;9494418;30;20060;-70
2023/06/03 12:38:53;;;;;;;6.28;4.25;;;;;;;;;;9486703;30;20421;-70
2023/06/03 12:43:46;;;;;;;4.40;4.00;;;;;;;;;;9480728;30;20060;-69
2023/06/03 12:48:40;;;;;;;5.78;3.65;;;;;;;;;;9489350;30;20056;-69
2023/06/03 12:53:33;;;;;;;3.95;3.40;;;;;;;;;;9493047;30;20048;-69
2023/06/03 12:58:30;;;;;;;4.20;3.58;;;;;;;;;;9490873;30;20072;-70
2023/06/03 13:03:23;;;;;;;7.43;4.25;;;;;;;;;;9506716;30;20201;-69
2023/06/03 13:08:18;;;;;;;6.10;4.40;;;;;;;;;;9486614;30;20064;-68
2023/06/03 13:13:12;;;;;;;4.85;3.75;;;;;;;;;;9490498;30;20148;-67
2023/06/03 13:18:05;;;;;;;9.90;4.45;;;;;;;;;;9495099;30;20056;-67
2023/06/03 13:23:01;;;;;;;6.00;4.10;;;;;;;;;;9496929;30;20087;-68
2023/06/03 13:27:54;;;;;;;4.35;3.95;;;;;;;;;;9485862;30;20060;-68
2023/06/03 13:32:48;;;;;;;5.28;4.30;;;;;;;;;;9497729;30;20749;-68
2023/06/03 13:37:41;;;;;;;8.90;2.67;;;;;;;;;;9486229;30;20497;-68
2023/06/03 13:42:35;;;;;;;7.38;3.03;;;;;;;;;;9489674;30;20052;-69
2023/06/03 13:47:30;;;;;;;2.70;2.25;;;;;;;;;;9496686;30;20067;-68
2023/06/03 13:52:25;;;;;;;4.85;2.60;;;;;;;;;;9489751;30;20056;-67
2023/06/03 13:57:19;;;;;;;5.07;2.33;;;;;;;;;;9495911;30;20060;-68
2023/06/03 14:02:13;;;;;;;8.15;3.08;;;;;;;;;;9503516;30;20097;-68
2023/06/03 14:07:07;;;;;;;26.33;4.07;;;;;;;;;;9501945;30;20048;-69
2023/06/03 14:12:00;;;;;;;3.75;2.35;;;;;;;;;;9501035;30;20139;-70
2023/06/03 14:16:53;;;;;;;3.10;2.17;;;;;;;;;;9490381;30;20076;-69
2023/06/03 14:21:47;;;;;;;4.20;2.10;;;;;;;;;;9487587;30;20090;-69
2023/06/03 14:26:40;;;;;;;4.05;2.47;;;;;;;;;;9487349;30;20402;-69
2023/06/03 14:31:34;;;;;;;8.13;2.70;;;;;;;;;;9483133;30;20072;-70
2023/06/03 14:36:27;;;;;;;4.47;2.38;;;;;;;;;;9487772;30;20068;-68
2023/06/03 14:41:21;;;;;;;4.20;2.55;;;;;;;;;;9491024;30;20062;-66
2023/06/03 14:46:15;;;;;;;6.15;4.70;;;;;;;;;;9494376;30;20553;-67
2023/06/03 14:51:12;;;;;;;2.45;2.25;;;;;;;;;;9505483;30;20421;-68
2023/06/03 14:56:06;;;;;;;3.30;2.17;;;;;;;;;;9489256;30;20106;-68
2023/06/03 15:01:02;;;;;;;2.45;1.75;;;;;;;;;;9496441;30;20143;-68
2023/06/03 15:05:56;;;;;;;8.23;3.05;;;;;;;;;;9485075;30;21169;-69
2023/06/03 15:10:49;;;;;;;13.32;7.10;;;;;;;;;;9483669;30;20067;-69
2023/06/03 15:15:43;;;;;;;5.57;2.85;;;;;;;;;;9481539;30;20075;-69
2023/06/03 15:20:37;;;;;;;5.38;2.50;;;;;;;;;;9477365;30;20061;-69
2023/06/03 15:25:30;;;;;;;11.52;3.40;;;;;;;;;;9474954;30;20049;-69
2023/06/03 15:30:24;;;;;;;4.72;3.60;;;;;;;;;;9485951;30;20080;-70
2023/06/03 15:35:17;;;;;;;6.45;4.63;;;;;;;;;;9489993;30;20072;-69
2023/06/03 15:40:12;;;;;;;13.48;11.80;;;;;;;;;;9491424;30;20512;-69
2023/06/03 15:45:07;;;;;;;9.48;8.15;;;;;;;;;;9494148;30;20139;-64
2023/06/03 15:50:03;;;;;;;15.00;12.00;;;;;;;;;;9488770;30;20063;-64
2023/06/03 15:54:57;;;;;;;7.50;6.80;;;;;;;;;;9494417;30;20618;-65
2023/06/03 15:59:50;;;;;;;3.78;3.40;;;;;;;;;;9498552;30;20060;-65
2023/06/03 16:04:44;;;;;;;9.35;7.70;;;;;;;;;;9492544;30;20542;-64
2023/06/03 16:09:38;;;;;;;11.00;7.18;;;;;;;;;;9511900;30;20060;-62
2023/06/03 16:14:31;;;;;;;6.65;4.90;;;;;;;;;;9488129;30;20056;-63
2023/06/03 16:19:25;;;;;;;4.50;3.70;;;;;;;;;;9494724;30;20127;-63
2023/06/03 16:24:19;;;;;;;7.32;3.40;;;;;;;;;;9499927;30;20523;-63
2023/06/03 16:29:12;;;;;;;4.65;3.78;;;;;;;;;;9493059;30;20057;-63
2023/06/03 16:34:07;;;;;;;4.88;3.92;;;;;;;;;;9498734;30;20068;-62
2023/06/03 16:39:00;;;;;;;6.13;4.78;;;;;;;;;;9495417;30;20060;-60
2023/06/03 16:43:55;;;;;;;8.32;6.15;;;;;;;;;;9508735;30;20513;-61
2023/06/03 16:48:48;;;;;;;4.75;4.10;;;;;;;;;;9491081;30;20426;-61
2023/06/03 16:53:42;;;;;;;4.03;3.40;;;;;;;;;;9492718;30;20068;-61
2023/06/03 16:58:36;;;;;;;4.30;3.88;;;;;;;;;;9494230;30;20056;-61
2023/06/03 17:03:30;;;;;;;4.97;3.83;;;;;;;;;;9487143;30;20060;-61
2023/06/03 17:08:24;;;;;;;4.25;3.60;;;;;;;;;;9504199;30;20055;-62
2023/06/03 17:13:18;;;;;;;8.48;4.03;;;;;;;;;;9503439;30;20075;-61
2023/06/03 17:18:11;;;;;;;7.65;5.07;;;;;;;;;;9501868;30;20096;-61
2023/06/03 17:23:06;;;;;;;5.15;4.60;;;;;;;;;;9502221;30;20066;-65
2023/06/03 17:27:58;;;;;;;5.18;4.70;;;;;;;;;;9503566;30;20067;-67
2023/06/03 17:32:52;;;;;;;7.35;4.85;;;;;;;;;;9503100;30;20078;-64
2023/06/03 17:37:46;;;;;;;4.63;4.18;;;;;;;;;;9484793;30;20062;-64
2023/06/03 17:42:40;;;;;;;4.53;3.92;;;;;;;;;;9489185;30;20060;-63
2023/06/03 17:47:33;;;;;;;9.65;3.92;;;;;;;;;;9488555;30;20061;-63
2023/06/03 17:52:27;;;;;;;4.90;3.63;;;;;;;;;;9486460;30;20428;-64
2023/06/03 17:57:21;;;;;;;6.13;4.28;;;;;;;;;;9488365;30;20450;-65
2023/06/03 18:02:14;;;;;;;5.50;4.10;;;;;;;;;;9489864;30;20083;-63
2023/06/03 18:07:08;;;;;;;10.52;4.40;;;;;;;;;;9490355;30;20056;-65
2023/06/03 18:12:02;;;;;;;5.55;4.38;;;;;;;;;;9485005;30;20142;-65
2023/06/03 18:16:56;;;;;;;9.40;4.47;;;;;;;;;;9489122;30;20086;-64
2023/06/03 18:21:51;;;;;;;5.90;4.82;;;;;;;;;;9484080;30;20056;-64
2023/06/03 18:26:46;;;;;;;5.18;4.68;;;;;;;;;;9482225;30;20485;-64
2023/06/03 18:31:43;;;;;;;11.23;6.90;;;;;;;;;;9481693;30;20052;-64
2023/06/03 18:36:37;;;;;;;7.20;5.13;;;;;;;;;;9485359;30;20144;-63
2023/06/03 18:41:30;;;;;;;15.00;12.40;;;;;;;;;;9488870;30;20482;-64
2023/06/03 18:46:25;;;;;;;16.35;14.65;;;;;;;;;;9481192;30;20107;-62
2023/06/03 18:51:19;;;;;;;16.38;13.05;;;;;;;;;;9486245;30;20061;-63
2023/06/03 18:56:14;;;;;;;19.25;13.02;;;;;;;;;;9494793;30;20539;-62
2023/06/03 19:01:08;;;;;;;17.75;13.07;;;;;;;;;;9480461;30;20443;-64
2023/06/03 19:06:01;;;;;;;14.95;13.45;;;;;;;;;;9498367;30;20099;-64
2023/06/03 19:10:55;;;;;;;23.90;16.55;;;;;;;;;;9497561;30;20139;-66
2023/06/03 19:15:51;;;;;;;16.13;13.25;;;;;;;;;;9496671;30;20475;-66
2023/06/03 19:20:45;;;;;;;15.80;13.60;;;;;;;;;;9498540;30;20052;-66
2023/06/03 19:25:40;;;;;;;16.60;13.02;;;;;;;;;;9498147;30;20117;-66
2023/06/03 19:30:36;;;;;;;18.75;14.35;;;;;;;;;;9427337;30;20057;-65
2023/06/03 19:35:32;;;;;;;14.85;12.70;;;;;;;;;;9428441;30;20489;-66
2023/06/03 19:40:25;;;;;;;17.90;12.52;;;;;;;;;;9431788;30;20068;-64
2023/06/03 19:45:21;;;;;;;14.45;12.50;;;;;;;;;;9428772;30;20107;-64
2023/06/03 19:50:19;;;;;;;14.35;9.60;;;;;;;;;;9419637;30;20492;-65
2023/06/03 19:55:16;;;;;;;13.90;10.82;;;;;;;;;;9482845;30;20045;-61
2023/06/03 20:00:12;;;;;;;14.02;12.57;;;;;;;;;;9491130;30;20413;-62
2023/06/03 20:05:07;;;;;;;17.77;13.43;;;;;;;;;;9496576;30;20629;-62
2023/06/03 20:10:03;;;;;;;14.13;12.43;;;;;;;;;;9499458;30;20056;-76
2023/06/03 20:14:57;;;;;;;18.77;11.57;;;;;;;;;;9493790;30;20468;-74
2023/06/03 20:19:52;;;;;;;14.40;10.32;;;;;;;;;;9498602;30;20141;-73
2023/06/03 20:24:46;;;;;;;9.85;8.85;;;;;;;;;;9501070;30;20088;-68
2023/06/03 20:29:39;;;;;;;11.82;9.50;;;;;;;;;;9494842;30;20536;-68
2023/06/03 20:34:34;;;;;;;12.02;10.82;;;;;;;;;;9491646;30;20076;-66
2023/06/03 20:39:29;;;;;;;15.60;11.68;;;;;;;;;;9498451;30;20044;-68
2023/06/03 20:44:25;;;;;;;15.70;12.85;;;;;;;;;;9492940;30;20412;-67
2023/06/03 20:49:20;;;;;;;16.75;14.65;;;;;;;;;;9498855;30;20141;-67
2023/06/03 20:54:14;;;;;;;15.30;13.68;;;;;;;;;;9496146;30;20571;-68
2023/06/03 20:59:08;;;;;;;21.05;14.50;;;;;;;;;;9497957;30;20127;-69
2023/06/03 21:04:01;;;;;;;21.80;14.90;;;;;;;;;;9498847;30;20478;-68
2023/06/03 21:08:55;;;;;;;17.88;12.05;;;;;;;;;;9498129;30;20110;-69
2023/06/03 21:13:49;;;;;;;14.57;13.10;;;;;;;;;;9501798;30;20056;-68
2023/06/03 21:18:45;;;;;;;20.70;12.75;;;;;;;;;;9498166;30;20056;-68
2023/06/03 21:23:40;;;;;;;22.42;14.15;;;;;;;;;;9490650;30;20193;-67
2023/06/03 21:28:35;;;;;;;23.80;13.65;;;;;;;;;;9490574;30;20061;-69
2023/06/03 21:33:29;;;;;;;23.88;14.77;;;;;;;;;;9494618;30;20056;-70
2023/06/03 21:38:25;;;;;;;19.27;13.00;;;;;;;;;;9499355;30;20064;-68
2023/06/03 21:43:20;;;;;;;18.55;13.38;;;;;;;;;;9501997;30;20056;-68
2023/06/03 21:48:15;;;;;;;20.95;13.23;;;;;;;;;;9491234;30;20078;-67
2023/06/03 21:53:09;;;;;;;13.27;12.00;;;;;;;;;;9487988;30;20052;-68
2023/06/03 21:58:05;;;;;;;15.88;11.43;;;;;;;;;;9493728;30;20061;-69
2023/06/03 22:03:01;;;;;;;23.30;11.48;;;;;;;;;;9491879;30;20055;-68
2023/06/03 22:07:57;;;;;;;12.13;10.90;;;;;;;;;;9490723;30;20489;-68
2023/06/03 22:12:51;;;;;;;17.20;11.48;;;;;;;;;;9496908;30;20052;-71
2023/06/03 22:17:44;;;;;;;18.40;13.30;;;;;;;;;;9487593;30;20139;-72
2023/06/03 22:22:38;;;;;;;15.63;11.95;;;;;;;;;;9493599;30;20083;-72
2023/06/03 22:27:31;;;;;;;18.02;12.80;;;;;;;;;;9502840;30;20060;-72
2023/06/03 22:32:25;;;;;;;18.02;13.63;;;;;;;;;;9490649;30;20143;-71
2023/06/03 22:37:18;;;;;;;27.33;13.75;;;;;;;;;;9496870;30;20618;-72
2023/06/03 22:42:11;;;;;;;19.30;13.70;;;;;;;;;;9494607;30;20060;-72
2023/06/03 22:47:06;;;;;;;17.98;13.93;;;;;;;;;;9499794;30;20055;-72
2023/06/03 22:52:00;;;;;;;15.52;13.05;;;;;;;;;;9495115;30;20052;-73
2023/06/03 22:56:54;;;;;;;14.82;11.93;;;;;;;;;;9493598;30;20052;-75
2023/06/03 23:01:48;;;;;;;16.17;14.23;;;;;;;;;;9506137;30;20114;-75
2023/06/03 23:06:41;;;;;;;15.48;11.82;;;;;;;;;;9506447;30;20559;-75
2023/06/03 23:11:36;;;;;;;14.90;13.25;;;;;;;;;;9509784;30;20052;-75
2023/06/03 23:16:29;;;;;;;13.38;11.98;;;;;;;;;;9501982;30;20048;-75
2023/06/03 23:21:24;;;;;;;15.10;12.50;;;;;;;;;;9503474;30;20524;-75
2023/06/03 23:26:17;;;;;;;16.95;12.85;;;;;;;;;;9498319;30;20058;-75
2023/06/03 23:31:11;;;;;;;24.77;16.17;;;;;;;;;;9489817;30;20052;-75
2023/06/03 23:36:06;;;;;;;15.98;12.52;;;;;;;;;;9477288;30;20064;-75
2023/06/03 23:40:59;;;;;;;15.57;12.63;;;;;;;;;;9519720;30;20450;-75
2023/06/03 23:45:53;;;;;;;14.68;13.00;;;;;;;;;;9503934;30;20057;-75
2023/06/03 23:50:46;;;;;;;15.82;12.32;;;;;;;;;;9508991;30;20064;-74
2023/06/03 23:55:40;;;;;;;16.92;12.38;;;;;;;;;;9496449;30;20056;-75
